Time;durP1;ratioP1;P1;durP2;ratioP2;P2;SDS_P1;SDS_P2;PMS_P1;PMS_P2;Temp;Humidity;BMP_temperature;BMP_pressure;BME280_temperature;BME280_humidity;BME280_pressure;Samples;Min_cycle;Max_cycle;Signal;HPM_P1;HPM_P2
2023/12/13 00:01:38;;;;;;;0.88;0.88;;;;;;;-2.53;82.95;100017.06;5107919;28;20020;-67
2023/12/13 00:04:03;;;;;;;1.38;1.13;;;;;;;-2.50;83.16;100014.66;5107592;28;20472;-65
2023/12/13 00:06:29;;;;;;;1.23;1.23;;;;;;;-2.50;83.17;100012.97;5088620;28;20034;-66
2023/12/13 00:08:54;;;;;;;1.23;1.13;;;;;;;-2.47;83.12;100021.50;5107441;28;20082;-66
2023/12/13 00:11:19;;;;;;;0.60;0.60;;;;;;;-2.46;83.22;100015.63;5089297;28;20024;-66
2023/12/13 00:13:45;;;;;;;0.63;0.63;;;;;;;-2.48;82.89;100010.50;5107391;28;20083;-65
2023/12/13 00:16:10;;;;;;;0.73;0.73;;;;;;;-2.51;82.89;100008.69;5107374;28;20039;-65
2023/12/13 00:18:36;;;;;;;0.55;0.55;;;;;;;-2.49;82.96;100022.34;5107329;28;20417;-66
2023/12/13 00:21:02;;;;;;;0.45;0.45;;;;;;;-2.52;82.84;100013.72;5107421;28;20024;-66
2023/12/13 00:23:27;;;;;;;1.13;1.02;;;;;;;-2.52;82.84;100008.63;5088989;28;20107;-66
2023/12/13 00:25:53;;;;;;;0.70;0.70;;;;;;;-2.50;83.11;100005.34;5107123;28;20362;-66
2023/12/13 00:28:18;;;;;;;0.60;0.60;;;;;;;-2.49;83.20;100017.25;5107359;28;20031;-67
2023/12/13 00:30:45;;;;;;;1.25;1.15;;;;;;;-2.49;83.14;100003.66;5107087;28;20048;-66
2023/12/13 00:33:11;;;;;;;0.50;0.50;;;;;;;-2.48;83.25;100013.03;5088778;28;20104;-66
2023/12/13 00:35:37;;;;;;;0.60;0.60;;;;;;;-2.49;83.19;100009.63;5088896;28;20028;-65
2023/12/13 00:38:03;;;;;;;0.50;0.50;;;;;;;-2.45;83.26;100007.19;5106644;28;20034;-66
2023/12/13 00:40:29;;;;;;;2.45;2.30;;;;;;;-2.47;83.24;100008.81;5088460;28;20016;-67
2023/12/13 00:42:55;;;;;;;1.55;1.45;;;;;;;-2.46;83.38;100010.56;5088780;28;20023;-66
2023/12/13 00:45:21;;;;;;;1.48;1.40;;;;;;;-2.42;82.95;100005.66;5106987;28;20042;-66
2023/12/13 00:47:47;;;;;;;1.17;0.98;;;;;;;-2.46;83.11;100003.78;5106924;28;20032;-66
2023/12/13 00:50:12;;;;;;;0.45;0.45;;;;;;;-2.42;83.08;100007.31;5106985;28;20050;-67
2023/12/13 00:52:37;;;;;;;1.48;1.38;;;;;;;-2.43;82.89;100000.50;5106403;28;20046;-66
2023/12/13 00:55:04;;;;;;;0.77;0.65;;;;;;;-2.41;83.01;100016.69;5106799;28;20020;-66
2023/12/13 00:57:32;;;;;;;0.50;0.50;;;;;;;-2.50;82.98;99997.72;5088513;28;20016;-66
2023/12/13 00:59:58;;;;;;;0.55;0.55;;;;;;;-2.45;83.15;100012.28;5106682;28;20495;-66
2023/12/13 01:02:24;;;;;;;1.75;1.15;;;;;;;-2.49;82.87;100007.06;5106733;28;20024;-66
2023/12/13 01:04:49;;;;;;;0.60;0.60;;;;;;;-2.50;82.78;100009.56;5106745;28;20016;-66
2023/12/13 01:07:14;;;;;;;1.23;1.15;;;;;;;-2.58;82.70;100001.66;5106414;28;20073;-67
2023/12/13 01:09:40;;;;;;;0.50;0.50;;;;;;;-2.53;82.75;100019.63;5088119;28;20040;-66
2023/12/13 01:12:06;;;;;;;2.50;2.30;;;;;;;-2.55;82.78;100011.94;5106145;28;20017;-66
2023/12/13 01:14:32;;;;;;;2.42;2.28;;;;;;;-2.57;82.84;100005.06;5106033;28;20044;-67
2023/12/13 01:16:58;;;;;;;0.60;0.60;;;;;;;-2.56;82.74;100007.66;5106386;28;20032;-66
2023/12/13 01:19:24;;;;;;;4.38;2.63;;;;;;;-2.64;82.62;99998.88;5105436;28;20091;-67
2023/12/13 01:21:50;;;;;;;0.50;0.50;;;;;;;-2.63;82.49;99996.38;5088073;28;20115;-66
2023/12/13 01:24:15;;;;;;;0.50;0.50;;;;;;;-2.63;82.63;100008.22;5105939;28;20394;-65
2023/12/13 01:26:40;;;;;;;0.60;0.60;;;;;;;-2.60;82.64;100007.47;5106102;28;20106;-66
2023/12/13 01:29:05;;;;;;;0.63;0.63;;;;;;;-2.58;82.83;100011.81;5106086;28;20020;-65
2023/12/13 01:31:31;;;;;;;2.10;1.45;;;;;;;-2.62;83.33;100002.34;5106224;28;20073;-66
2023/12/13 01:33:56;;;;;;;0.60;0.60;;;;;;;-2.65;82.82;99995.44;5105700;28;20023;-67
2023/12/13 01:36:22;;;;;;;1.50;1.33;;;;;;;-2.52;82.72;100013.72;5105870;28;20036;-66
2023/12/13 01:38:47;;;;;;;1.70;1.50;;;;;;;-2.56;82.70;100006.78;5087273;28;20035;-66
2023/12/13 01:41:13;;;;;;;0.52;0.52;;;;;;;-2.55;83.06;100006.84;5105963;28;20024;-66
2023/12/13 01:43:38;;;;;;;0.60;0.60;;;;;;;-2.53;83.08;100010.31;5105841;28;20039;-66
2023/12/13 01:46:04;;;;;;;0.50;0.50;;;;;;;-2.52;82.96;100018.78;5105740;28;20099;-66
2023/12/13 01:48:29;;;;;;;0.40;0.40;;;;;;;-2.58;82.76;100011.81;5105714;28;20028;-66
2023/12/13 01:50:55;;;;;;;0.57;0.57;;;;;;;-2.58;82.48;100008.38;5105644;28;20024;-66
2023/12/13 01:53:23;;;;;;;0.95;0.90;;;;;;;-2.57;82.84;100016.06;5087137;28;20024;-65
2023/12/13 01:55:50;;;;;;;0.70;0.70;;;;;;;-2.64;82.75;100012.44;5105618;28;20035;-65
2023/12/13 01:58:18;;;;;;;2.15;0.85;;;;;;;-2.61;82.86;100009.16;5105531;28;20084;-65
2023/12/13 02:00:44;;;;;;;1.45;1.35;;;;;;;-2.64;82.62;100014.13;5105496;28;20024;-66
2023/12/13 02:03:11;;;;;;;0.65;0.65;;;;;;;-2.66;82.81;100006.44;5105159;28;20157;-66
2023/12/13 02:05:38;;;;;;;2.65;2.28;;;;;;;-2.62;82.55;100015.06;5105351;28;20030;-66
2023/12/13 02:08:04;;;;;;;0.50;0.50;;;;;;;-2.69;82.35;100000.34;5105147;28;20024;-66
2023/12/13 02:10:30;;;;;;;0.68;0.68;;;;;;;-2.65;82.69;100010.69;5105538;28;20020;-66
2023/12/13 02:12:55;;;;;;;0.60;0.60;;;;;;;-2.68;82.69;100009.69;5086992;28;20392;-66
2023/12/13 02:15:21;;;;;;;0.60;0.60;;;;;;;-2.66;82.58;100014.06;5105089;28;20523;-66
2023/12/13 02:17:51;;;;;;;1.25;1.25;;;;;;;-2.68;82.40;100014.78;5105528;28;20024;-65
2023/12/13 02:20:17;;;;;;;1.17;1.17;;;;;;;-2.68;82.51;100019.88;5105149;28;20039;-66
2023/12/13 02:22:42;;;;;;;1.45;1.35;;;;;;;-2.71;82.51;100009.59;5104867;28;20020;-66
2023/12/13 02:25:14;;;;;;;0.98;0.98;;;;;;;-2.69;82.63;100013.94;5105293;28;20384;-66
2023/12/13 02:27:41;;;;;;;1.40;1.30;;;;;;;-2.75;82.54;100004.38;5105157;28;20028;-66
2023/12/13 02:30:07;;;;;;;0.55;0.55;;;;;;;-2.69;82.40;100015.59;5104760;28;20077;-66
2023/12/13 02:32:32;;;;;;;1.33;1.15;;;;;;;-2.72;82.33;100006.19;5086669;28;20028;-66
2023/12/13 02:34:58;;;;;;;2.08;1.88;;;;;;;-2.69;82.31;100001.22;5105056;28;20055;-66
2023/12/13 02:37:24;;;;;;;0.70;0.70;;;;;;;-2.64;82.45;100017.53;5105251;28;20536;-66
2023/12/13 02:39:49;;;;;;;0.60;0.60;;;;;;;-2.66;82.39;100013.19;5104850;28;20016;-66
2023/12/13 02:42:15;;;;;;;0.60;0.60;;;;;;;-2.65;82.46;100008.16;5104904;28;20046;-66
2023/12/13 02:44:42;;;;;;;1.90;1.80;;;;;;;-2.70;82.48;100008.78;5105054;28;20020;-66
2023/12/13 02:47:11;;;;;;;0.50;0.50;;;;;;;-2.72;82.42;99997.69;5104860;28;20024;-66
2023/12/13 02:49:36;;;;;;;2.15;0.88;;;;;;;-2.70;82.57;100007.09;5104908;28;20115;-66
2023/12/13 02:52:02;;;;;;;0.50;0.50;;;;;;;-2.72;82.57;99990.94;5104840;28;20020;-66
2023/12/13 02:54:27;;;;;;;0.60;0.60;;;;;;;-2.68;82.89;99989.38;5104826;28;20024;-66
2023/12/13 02:56:52;;;;;;;0.60;0.60;;;;;;;-2.60;82.89;100003.25;5104847;28;20070;-66
2023/12/13 02:59:18;;;;;;;1.45;1.35;;;;;;;-2.60;82.73;99995.63;5104744;28;20020;-66
2023/12/13 03:01:43;;;;;;;1.42;1.33;;;;;;;-2.60;82.46;99999.88;5104719;28;20020;-66
2023/12/13 03:04:08;;;;;;;0.80;0.80;;;;;;;-2.62;82.61;99999.81;5104606;28;20020;-66
2023/12/13 03:06:34;;;;;;;0.77;0.77;;;;;;;-2.58;82.64;99996.56;5104854;28;20028;-65
2023/12/13 03:08:59;;;;;;;1.98;1.65;;;;;;;-2.61;82.69;99986.28;5104355;28;20039;-66
2023/12/13 03:11:24;;;;;;;0.82;0.82;;;;;;;-2.62;82.57;99989.63;5086363;28;20016;-66
2023/12/13 03:13:50;;;;;;;1.42;0.90;;;;;;;-2.60;82.56;99987.16;5104606;28;20024;-65
2023/12/13 03:16:15;;;;;;;0.50;0.50;;;;;;;-2.63;82.31;99988.75;5104403;28;20048;-66
2023/12/13 03:18:40;;;;;;;0.70;0.70;;;;;;;-2.69;82.11;99982.56;5104793;28;20432;-66
2023/12/13 03:21:06;;;;;;;4.78;0.98;;;;;;;-2.70;82.37;99989.31;5104599;28;20020;-66
2023/12/13 03:23:31;;;;;;;0.60;0.60;;;;;;;-2.69;81.94;99987.66;5104390;28;20495;-66
2023/12/13 03:25:57;;;;;;;0.60;0.60;;;;;;;-2.69;82.45;99995.28;5104757;28;20024;-66
2023/12/13 03:28:22;;;;;;;0.50;0.50;;;;;;;-2.69;82.48;99987.66;5104389;28;20357;-66
2023/12/13 03:30:48;;;;;;;0.50;0.50;;;;;;;-2.66;82.39;99993.72;5104463;28;20099;-67
2023/12/13 03:33:13;;;;;;;1.05;0.80;;;;;;;-2.68;82.21;99989.38;5086110;28;20016;-67
2023/12/13 03:35:39;;;;;;;0.57;0.57;;;;;;;-2.70;82.09;99984.22;5104023;28;20058;-66
2023/12/13 03:38:04;;;;;;;0.85;0.60;;;;;;;-2.74;82.23;99985.81;5086313;28;20016;-66
2023/12/13 03:40:30;;;;;;;0.57;0.57;;;;;;;-2.76;81.89;99986.53;5086134;28;20552;-67
2023/12/13 03:42:55;;;;;;;1.02;1.02;;;;;;;-2.77;82.08;99974.66;5088559;28;20016;-67
2023/12/13 03:45:23;;;;;;;1.75;1.65;;;;;;;-2.80;82.11;99972.88;5108049;28;20030;-66
2023/12/13 03:47:48;;;;;;;1.48;1.38;;;;;;;-2.75;82.29;99978.97;5108060;28;20024;-65
2023/12/13 03:50:14;;;;;;;0.90;0.90;;;;;;;-2.74;82.28;99983.25;5108096;28;20079;-65
2023/12/13 03:52:39;;;;;;;0.60;0.60;;;;;;;-2.70;82.34;99991.00;5107646;28;20032;-66
2023/12/13 03:55:05;;;;;;;0.57;0.57;;;;;;;-2.80;81.96;99980.50;5089774;28;20028;-66
2023/12/13 03:57:31;;;;;;;5.88;2.35;;;;;;;-2.76;82.16;99976.38;5089552;28;20169;-65
2023/12/13 03:59:56;;;;;;;0.60;0.60;;;;;;;-2.77;81.96;99975.53;5089632;28;20028;-66
2023/12/13 04:02:21;;;;;;;1.23;1.13;;;;;;;-2.76;81.82;99987.41;5107674;28;20444;-67
2023/12/13 04:04:47;;;;;;;1.40;1.30;;;;;;;-2.82;81.58;99974.47;5107607;28;20023;-65
2023/12/13 04:07:13;;;;;;;0.50;0.50;;;;;;;-2.76;81.53;99979.78;5107692;28;20020;-67
2023/12/13 04:09:38;;;;;;;0.50;0.50;;;;;;;-2.83;81.55;99985.44;5106559;28;20044;-67
2023/12/13 04:12:04;;;;;;;1.33;1.27;;;;;;;-2.80;81.65;99990.66;5107559;28;20104;-66
2023/12/13 04:14:29;;;;;;;0.80;0.77;;;;;;;-2.81;81.65;99986.34;5107341;28;20066;-65
2023/12/13 04:16:55;;;;;;;0.85;0.85;;;;;;;-2.86;81.37;99985.34;5089263;28;20028;-65
2023/12/13 04:19:20;;;;;;;0.55;0.55;;;;;;;-2.83;81.39;99979.50;5089189;28;20073;-65
2023/12/13 04:21:45;;;;;;;0.60;0.60;;;;;;;-2.81;81.43;99988.91;5107434;28;20013;-66
2023/12/13 04:24:11;;;;;;;0.60;0.60;;;;;;;-2.86;81.58;99985.34;5088803;28;20023;-66
2023/12/13 04:26:36;;;;;;;0.50;0.50;;;;;;;-2.82;81.42;99993.91;5107038;28;20069;-66
2023/12/13 04:29:02;;;;;;;0.50;0.50;;;;;;;-2.87;81.72;99979.38;5107219;28;20026;-67
2023/12/13 04:31:27;;;;;;;0.70;0.63;;;;;;;-2.86;81.47;99982.78;5107032;28;20035;-66
2023/12/13 04:33:53;;;;;;;1.15;1.05;;;;;;;-2.86;81.37;99981.09;5107009;28;20020;-67
2023/12/13 04:36:18;;;;;;;0.60;0.60;;;;;;;-2.90;81.53;99978.38;5107056;28;20027;-66
2023/12/13 04:38:44;;;;;;;0.90;0.90;;;;;;;-2.84;81.79;99986.25;5106811;28;20024;-65
2023/12/13 04:41:09;;;;;;;0.80;0.80;;;;;;;-2.87;81.45;99981.91;5107209;28;20031;-66
2023/12/13 04:43:35;;;;;;;0.90;0.90;;;;;;;-2.87;81.58;99979.38;5106950;28;20024;-66
2023/12/13 04:46:00;;;;;;;0.82;0.82;;;;;;;-2.88;81.45;99966.59;5106959;28;20048;-66
2023/12/13 04:48:25;;;;;;;1.30;1.20;;;;;;;-2.81;81.57;99981.28;5088470;28;20048;-65
2023/12/13 04:50:51;;;;;;;0.52;0.52;;;;;;;-2.85;81.67;99976.91;5106676;28;20055;-65
2023/12/13 04:53:16;;;;;;;0.55;0.55;;;;;;;-2.84;81.67;99981.16;5106240;28;20020;-66
2023/12/13 04:55:41;;;;;;;0.60;0.60;;;;;;;-2.81;81.61;99986.34;5106627;28;20031;-66
2023/12/13 04:58:07;;;;;;;1.02;1.02;;;;;;;-2.84;81.67;99978.63;5106682;28;20024;-65
2023/12/13 05:00:32;;;;;;;0.60;0.60;;;;;;;-2.82;81.75;99978.69;5106460;28;20104;-64
2023/12/13 05:02:57;;;;;;;2.05;1.35;;;;;;;-2.81;81.79;99978.72;5106447;28;20023;-64
2023/12/13 05:05:23;;;;;;;0.80;0.80;;;;;;;-2.82;81.71;99981.22;5106548;28;20262;-65
2023/12/13 05:07:48;;;;;;;0.80;0.80;;;;;;;-2.84;81.77;99983.69;5106464;28;20020;-66
2023/12/13 05:10:14;;;;;;;1.83;1.67;;;;;;;-2.83;81.26;99975.28;5106408;28;20091;-66
2023/12/13 05:12:39;;;;;;;0.50;0.50;;;;;;;-2.89;81.54;99975.91;5106189;28;20020;-66
2023/12/13 05:15:05;;;;;;;2.70;1.15;;;;;;;-2.88;81.81;99979.31;5077736;28;20045;-66
2023/12/13 05:17:30;;;;;;;1.02;1.02;;;;;;;-2.93;82.06;99968.09;5086110;28;20030;-66
2023/12/13 05:19:56;;;;;;;0.55;0.55;;;;;;;-2.91;82.11;99966.50;5067773;28;20183;-66
2023/12/13 05:22:21;;;;;;;0.95;0.95;;;;;;;-2.85;82.18;99976.91;5086354;28;20020;-65
2023/12/13 05:24:46;;;;;;;0.70;0.70;;;;;;;-2.86;82.27;99970.09;5067577;28;20115;-65
2023/12/13 05:27:12;;;;;;;0.50;0.50;;;;;;;-2.86;82.10;99972.63;5085809;28;20031;-65
2023/12/13 05:29:37;;;;;;;1.90;1.45;;;;;;;-2.93;82.20;99968.97;5067686;28;20032;-66
2023/12/13 05:32:03;;;;;;;0.50;0.50;;;;;;;-2.93;82.38;99978.25;5085622;28;20025;-66
2023/12/13 05:34:28;;;;;;;0.68;0.68;;;;;;;-2.94;82.50;99968.91;5085373;28;20025;-67
2023/12/13 05:36:53;;;;;;;1.63;1.30;;;;;;;-2.99;82.52;99956.88;5085641;28;20028;-65
2023/12/13 05:39:19;;;;;;;0.98;0.98;;;;;;;-2.93;82.57;99968.09;5085317;28;20468;-67
2023/12/13 05:41:44;;;;;;;0.70;0.68;;;;;;;-3.10;82.63;99942.91;5085568;28;20027;-66
2023/12/13 05:44:09;;;;;;;2.53;1.55;;;;;;;-2.94;82.71;99971.47;5085234;28;20033;-67
2023/12/13 05:46:35;;;;;;;2.15;2.05;;;;;;;-2.96;82.82;99963.78;5085483;28;20027;-67
2023/12/13 05:49:02;;;;;;;6.22;1.38;;;;;;;-2.94;82.72;99976.53;5085325;28;20154;-66
2023/12/13 05:51:28;;;;;;;0.65;0.65;;;;;;;-2.91;82.80;99967.38;5085190;28;20036;-66
2023/12/13 05:53:53;;;;;;;0.63;0.63;;;;;;;-2.91;82.77;99966.50;5085489;28;20024;-67
2023/12/13 05:56:18;;;;;;;2.38;2.10;;;;;;;-2.94;82.83;99958.75;5085589;28;20054;-67
2023/12/13 05:58:44;;;;;;;1.40;1.17;;;;;;;-3.00;82.81;99957.69;5067512;28;20024;-65
2023/12/13 06:01:09;;;;;;;0.60;0.60;;;;;;;-3.03;82.75;99955.03;5067189;28;20516;-66
2023/12/13 06:03:34;;;;;;;0.80;0.80;;;;;;;-3.06;82.83;99962.53;5085039;28;20048;-66
2023/12/13 06:06:00;;;;;;;0.60;0.60;;;;;;;-3.01;82.98;99966.13;5085109;28;20016;-66
2023/12/13 06:08:28;;;;;;;1.45;1.35;;;;;;;-3.12;82.99;99947.06;5085132;28;20465;-67
2023/12/13 06:10:54;;;;;;;1.20;1.17;;;;;;;-3.00;82.99;99964.44;5067144;28;20020;-67
2023/12/13 06:13:19;;;;;;;2.40;1.45;;;;;;;-2.99;83.11;99974.66;5066978;28;20078;-67
2023/12/13 06:15:45;;;;;;;0.50;0.50;;;;;;;-2.96;83.15;99983.22;5100942;28;20134;-67
2023/12/13 06:18:10;;;;;;;1.20;1.13;;;;;;;-2.96;83.11;99984.09;5105402;28;20024;-67
2023/12/13 06:20:36;;;;;;;1.35;1.13;;;;;;;-2.90;83.10;99986.00;5105276;28;20028;-67
2023/12/13 06:23:02;;;;;;;0.85;0.85;;;;;;;-2.94;83.09;99984.16;5087168;28;20020;-66
2023/12/13 06:25:27;;;;;;;1.55;1.45;;;;;;;-2.95;83.22;99982.41;5087241;28;20077;-67
2023/12/13 06:27:53;;;;;;;1.60;0.95;;;;;;;-2.94;83.01;99986.69;5087222;28;20016;-66
2023/12/13 06:30:19;;;;;;;0.60;0.60;;;;;;;-2.94;83.12;99995.16;5087030;28;20533;-68
2023/12/13 06:32:44;;;;;;;1.17;1.13;;;;;;;-2.96;82.97;99988.31;5105106;28;20028;-67
2023/12/13 06:35:10;;;;;;;0.55;0.55;;;;;;;-2.96;83.05;99996.78;5086894;28;20089;-68
2023/12/13 06:37:35;;;;;;;0.63;0.63;;;;;;;-2.94;83.22;100004.47;5087042;28;20118;-67
2023/12/13 06:40:00;;;;;;;0.60;0.60;;;;;;;-2.89;82.71;99997.91;5104941;28;20048;-66
2023/12/13 06:42:28;;;;;;;0.73;0.73;;;;;;;-2.92;83.10;100011.34;5105459;28;20448;-67
2023/12/13 06:44:53;;;;;;;0.70;0.70;;;;;;;-2.94;83.36;99996.84;5087080;28;20092;-67
2023/12/13 06:47:19;;;;;;;1.88;1.75;;;;;;;-2.98;83.31;100000.94;5105173;28;20020;-66
2023/12/13 06:49:44;;;;;;;1.30;1.15;;;;;;;-2.90;83.45;100007.19;5105123;28;20469;-67
2023/12/13 06:52:09;;;;;;;0.98;0.98;;;;;;;-2.91;83.50;100002.94;5104910;28;20028;-67
2023/12/13 06:54:35;;;;;;;1.02;0.95;;;;;;;-2.90;83.65;100004.66;5104853;28;20024;-67
2023/12/13 06:57:01;;;;;;;0.50;0.50;;;;;;;-2.96;83.73;99996.78;5105059;28;20052;-67
2023/12/13 06:59:26;;;;;;;0.57;0.57;;;;;;;-3.00;83.67;99989.84;5105273;28;20024;-66
2023/12/13 07:01:51;;;;;;;0.70;0.70;;;;;;;-2.83;83.65;100009.97;5105109;28;20050;-68
2023/12/13 07:04:17;;;;;;;2.25;2.15;;;;;;;-2.86;83.51;100001.41;5104927;28;20076;-67
2023/12/13 07:06:44;;;;;;;0.60;0.60;;;;;;;-2.85;83.52;100017.53;5105004;28;20024;-67
2023/12/13 07:09:10;;;;;;;0.85;0.85;;;;;;;-2.91;83.58;100008.03;5104835;28;20035;-66
2023/12/13 07:11:36;;;;;;;0.70;0.70;;;;;;;-2.87;83.52;100021.69;5104740;28;20051;-67
2023/12/13 07:14:02;;;;;;;2.55;1.45;;;;;;;-2.88;83.52;100022.50;5104319;28;20040;-69
2023/12/13 07:16:27;;;;;;;1.08;1.08;;;;;;;-2.85;83.49;100022.63;5086968;28;20109;-68
2023/12/13 07:18:52;;;;;;;2.63;1.45;;;;;;;-2.93;83.27;100023.97;5108564;28;20024;-68
2023/12/13 07:21:18;;;;;;;0.98;0.88;;;;;;;-2.86;83.26;100036.16;5108817;28;20028;-67
2023/12/13 07:23:44;;;;;;;0.60;0.60;;;;;;;-2.90;83.55;100029.19;5090479;28;20388;-67
2023/12/13 07:26:09;;;;;;;0.52;0.52;;;;;;;-2.90;83.75;100036.81;5108758;28;20054;-67
2023/12/13 07:28:35;;;;;;;1.15;1.15;;;;;;;-2.86;83.66;100031.91;5108763;28;20158;-67
2023/12/13 07:31:05;;;;;;;1.13;1.13;;;;;;;-2.89;83.46;100025.88;5090476;28;20104;-67
2023/12/13 07:33:34;;;;;;;0.50;0.50;;;;;;;-2.79;83.22;100040.66;5090284;28;20085;-67
2023/12/13 07:35:59;;;;;;;0.70;0.70;;;;;;;-2.82;83.09;100052.34;5074094;28;20492;-67
2023/12/13 07:38:25;;;;;;;0.80;0.80;;;;;;;-2.89;83.21;100041.94;5090006;28;20032;-67
2023/12/13 07:40:50;;;;;;;0.65;0.65;;;;;;;-2.86;83.35;100062.41;5108439;28;20024;-66
2023/12/13 07:43:16;;;;;;;1.45;1.05;;;;;;;-2.88;83.40;100048.78;5090226;28;20501;-67
2023/12/13 07:45:43;;;;;;;1.55;1.13;;;;;;;-2.87;83.55;100063.22;5090179;28;20468;-66
2023/12/13 07:48:08;;;;;;;0.60;0.60;;;;;;;-2.88;83.08;100047.91;5090293;28;20356;-68
2023/12/13 07:50:33;;;;;;;0.73;0.73;;;;;;;-2.89;83.29;100054.66;5089946;28;20020;-68
2023/12/13 07:52:59;;;;;;;2.05;1.73;;;;;;;-2.87;83.19;100054.72;5089816;28;20077;-68
2023/12/13 07:55:24;;;;;;;0.63;0.63;;;;;;;-2.81;83.22;100059.19;5108425;28;20020;-67
2023/12/13 07:57:49;;;;;;;0.50;0.50;;;;;;;-2.80;82.82;100050.75;5108318;28;20368;-67
2023/12/13 08:00:16;;;;;;;0.90;0.90;;;;;;;-2.78;82.06;100042.38;5108179;28;20023;-67
2023/12/13 08:02:41;;;;;;;0.90;0.90;;;;;;;-2.88;82.49;100065.69;5108002;28;20040;-66
2023/12/13 08:05:08;;;;;;;1.67;1.35;;;;;;;-3.00;82.78;100050.81;5089615;28;20102;-67
2023/12/13 08:07:35;;;;;;;0.60;0.60;;;;;;;-2.88;82.57;100058.94;5108045;28;20024;-67
2023/12/13 08:10:01;;;;;;;0.60;0.60;;;;;;;-2.87;82.65;100072.50;5107909;28;20051;-67
2023/12/13 08:12:26;;;;;;;1.77;1.67;;;;;;;-2.94;82.55;100063.75;5108184;28;20024;-67
2023/12/13 08:14:51;;;;;;;0.60;0.60;;;;;;;-3.02;82.82;100076.13;5107392;28;20090;-67
2023/12/13 08:17:18;;;;;;;0.60;0.60;;;;;;;-2.95;82.39;100071.31;5107879;28;20024;-68
2023/12/13 08:19:43;;;;;;;0.60;0.60;;;;;;;-2.88;82.45;100083.47;5107731;28;20024;-67
2023/12/13 08:22:08;;;;;;;0.60;0.60;;;;;;;-2.92;82.52;100076.50;5107538;28;20073;-68
2023/12/13 08:24:34;;;;;;;0.80;0.80;;;;;;;-2.91;82.56;100080.81;5107487;28;20024;-67
2023/12/13 08:26:59;;;;;;;1.02;0.98;;;;;;;-2.90;82.38;100087.63;5107393;28;20050;-68
2023/12/13 08:29:24;;;;;;;1.73;1.50;;;;;;;-2.88;82.15;100094.53;5107129;28;20039;-67
2023/12/13 08:31:50;;;;;;;1.38;1.02;;;;;;;-2.89;82.04;100080.06;5107324;28;20024;-67
2023/12/13 08:34:15;;;;;;;1.45;1.35;;;;;;;-2.95;82.00;100079.81;5107431;28;20019;-67
2023/12/13 08:36:40;;;;;;;3.00;0.75;;;;;;;-2.81;81.47;100080.38;5107306;28;20020;-68
2023/12/13 08:39:06;;;;;;;0.88;0.88;;;;;;;-2.92;81.59;100076.50;5107110;28;20087;-67
2023/12/13 08:41:32;;;;;;;1.05;0.95;;;;;;;-2.93;81.81;100084.94;5107341;28;20012;-67
2023/12/13 08:43:57;;;;;;;1.58;1.50;;;;;;;-2.94;81.95;100084.06;5089188;28;20594;-67
2023/12/13 08:46:22;;;;;;;0.60;0.60;;;;;;;-2.94;82.23;100086.63;5107228;28;20047;-67
2023/12/13 08:48:48;;;;;;;0.60;0.60;;;;;;;-2.99;82.21;100083.88;5107123;28;20028;-67
2023/12/13 08:51:13;;;;;;;0.60;0.60;;;;;;;-2.85;82.04;100083.59;5107103;28;20043;-67
2023/12/13 08:53:39;;;;;;;0.60;0.60;;;;;;;-2.91;82.19;100089.31;5106683;28;20024;-68
2023/12/13 08:56:04;;;;;;;0.85;0.85;;;;;;;-2.85;82.19;100091.22;5107106;28;20024;-68
2023/12/13 08:58:29;;;;;;;1.85;1.25;;;;;;;-2.92;82.21;100089.22;5107021;28;20024;-67
2023/12/13 09:00:55;;;;;;;0.65;0.65;;;;;;;-2.95;82.20;100087.44;5106840;28;20407;-67
2023/12/13 09:03:20;;;;;;;0.50;0.50;;;;;;;-2.89;82.08;100084.28;5106691;28;20015;-68
2023/12/13 09:05:45;;;;;;;0.50;0.50;;;;;;;-2.90;81.87;100093.56;5106869;28;20020;-67
2023/12/13 09:08:11;;;;;;;0.68;0.68;;;;;;;-2.91;82.10;100099.47;5106611;28;20112;-67
2023/12/13 09:10:36;;;;;;;0.52;0.52;;;;;;;-2.87;81.98;100096.25;5106940;28;20035;-67
2023/12/13 09:13:02;;;;;;;0.50;0.50;;;;;;;-2.88;82.00;100108.88;5088431;28;20035;-68
2023/12/13 09:15:29;;;;;;;0.60;0.60;;;;;;;-2.95;82.14;100100.13;5106405;28;20131;-68
2023/12/13 09:17:54;;;;;;;1.00;0.93;;;;;;;-3.00;82.41;100099.06;5106661;28;20415;-67
2023/12/13 09:20:19;;;;;;;0.60;0.60;;;;;;;-2.96;82.40;100105.16;5106701;28;20016;-67
2023/12/13 09:22:45;;;;;;;0.60;0.60;;;;;;;-2.95;82.50;100101.78;5087969;28;20020;-67
2023/12/13 09:25:14;;;;;;;0.60;0.60;;;;;;;-2.90;82.21;100107.94;5106183;28;20024;-68
2023/12/13 09:27:39;;;;;;;3.03;0.90;;;;;;;-2.89;82.35;100100.38;5106467;28;20020;-67
2023/12/13 09:30:05;;;;;;;0.52;0.52;;;;;;;-2.91;82.20;100108.75;5106674;28;20020;-66
2023/12/13 09:32:33;;;;;;;0.50;0.50;;;;;;;-2.88;82.07;100114.84;5106236;28;20020;-67
2023/12/13 09:34:58;;;;;;;0.70;0.70;;;;;;;-2.94;82.20;100103.56;5106178;28;20020;-67
2023/12/13 09:37:25;;;;;;;0.70;0.70;;;;;;;-2.83;81.70;100107.41;5106314;28;20071;-69
2023/12/13 09:39:51;;;;;;;0.60;0.60;;;;;;;-2.86;81.54;100118.28;5105170;28;20020;-67
2023/12/13 09:42:17;;;;;;;1.63;1.55;;;;;;;-2.86;81.43;100122.53;5087996;28;20051;-67
2023/12/13 09:44:44;;;;;;;0.52;0.52;;;;;;;-2.85;81.82;100121.72;5106263;28;20024;-67
2023/12/13 09:47:10;;;;;;;0.50;0.50;;;;;;;-2.84;81.37;100128.53;5106425;28;20073;-67
2023/12/13 09:49:37;;;;;;;0.90;0.90;;;;;;;-2.86;81.49;100132.69;5087811;28;20024;-67
2023/12/13 09:52:03;;;;;;;4.25;0.80;;;;;;;-2.86;81.14;100131.00;5105996;28;20016;-67
2023/12/13 09:54:30;;;;;;;0.80;0.80;;;;;;;-2.92;81.04;100128.19;5105850;28;20024;-67
2023/12/13 09:56:56;;;;;;;0.80;0.80;;;;;;;-2.96;81.10;100139.06;5087757;28;20032;-67
2023/12/13 09:59:21;;;;;;;0.70;0.70;;;;;;;-2.93;81.25;100134.09;5106067;28;20027;-67
2023/12/13 10:01:47;;;;;;;0.85;0.85;;;;;;;-2.91;81.26;100150.28;5087630;28;20020;-67
2023/12/13 10:04:14;;;;;;;0.50;0.50;;;;;;;-2.90;81.19;100141.84;5105702;28;20024;-67
2023/12/13 10:06:39;;;;;;;0.57;0.57;;;;;;;-2.99;80.78;100124.53;5105655;28;20067;-67
2023/12/13 10:09:07;;;;;;;0.70;0.70;;;;;;;-2.89;81.02;100135.09;5087234;28;20028;-68
2023/12/13 10:11:33;;;;;;;0.82;0.82;;;;;;;-2.87;80.78;100141.97;5105562;28;20091;-67
2023/12/13 10:13:59;;;;;;;0.75;0.75;;;;;;;-2.92;80.95;100120.59;5087143;28;20057;-68
2023/12/13 10:16:28;;;;;;;0.60;0.60;;;;;;;-2.97;81.03;100122.06;5087197;28;20031;-68
2023/12/13 10:18:53;;;;;;;0.70;0.60;;;;;;;-2.98;80.77;100130.50;5105663;28;20502;-68
2023/12/13 10:21:19;;;;;;;1.15;1.15;;;;;;;-3.09;81.14;100108.84;5105493;28;20028;-67
2023/12/13 10:23:44;;;;;;;0.90;0.70;;;;;;;-2.99;81.03;100122.00;5105227;28;20020;-68
2023/12/13 10:26:10;;;;;;;0.95;0.95;;;;;;;-2.99;81.08;100127.06;5105518;28;20028;-68
2023/12/13 10:28:36;;;;;;;1.10;0.93;;;;;;;-2.93;79.97;100136.63;5105476;28;20116;-67
2023/12/13 10:31:03;;;;;;;1.55;1.45;;;;;;;-2.98;80.07;100127.94;5105512;28;20027;-67
2023/12/13 10:33:29;;;;;;;0.50;0.50;;;;;;;-2.99;80.18;100129.59;5105043;28;20028;-67
2023/12/13 10:35:56;;;;;;;0.60;0.60;;;;;;;-2.94;80.12;100132.34;5105288;28;20107;-68
2023/12/13 10:38:25;;;;;;;1.15;1.05;;;;;;;-2.93;80.07;100148.47;5087034;28;20045;-67
2023/12/13 10:40:50;;;;;;;0.60;0.60;;;;;;;-2.96;80.15;100138.16;5105534;28;20024;-67
2023/12/13 10:43:18;;;;;;;1.52;1.42;;;;;;;-2.86;79.74;100138.63;5105359;28;20476;-67
2023/12/13 10:45:48;;;;;;;1.30;1.17;;;;;;;-2.89;79.96;100150.34;5105361;28;20119;-67
2023/12/13 10:48:16;;;;;;;0.88;0.88;;;;;;;-2.86;79.99;100136.09;5105378;28;20023;-66
2023/12/13 10:50:44;;;;;;;0.50;0.50;;;;;;;-2.84;79.58;100125.97;5105628;28;20028;-67
2023/12/13 10:53:11;;;;;;;0.65;0.65;;;;;;;-2.83;79.70;100142.09;5091035;28;20087;-68
2023/12/13 10:55:39;;;;;;;0.50;0.50;;;;;;;-2.82;79.31;100137.09;5109213;28;20484;-67
2023/12/13 10:58:05;;;;;;;0.50;0.50;;;;;;;-2.78;79.35;100138.09;5109361;28;20031;-67
2023/12/13 11:00:32;;;;;;;0.50;0.50;;;;;;;-2.80;79.30;100138.03;5109072;28;20020;-69
2023/12/13 11:03:12;;;;;;;5.15;0.88;;;;;;;-2.74;79.07;100143.38;5090894;28;20024;-67
2023/12/13 11:05:38;;;;;;;0.70;0.70;;;;;;;-2.78;78.96;100138.94;5109054;28;20044;-67
2023/12/13 11:08:14;;;;;;;0.50;0.50;;;;;;;-2.81;78.54;100131.19;5109005;28;20384;-67
2023/12/13 11:10:39;;;;;;;0.63;0.63;;;;;;;-2.71;78.05;100159.53;5090802;28;20020;-67
2023/12/13 11:13:05;;;;;;;0.55;0.55;;;;;;;-2.83;78.17;100122.66;5109405;28;20041;-67
2023/12/13 11:15:31;;;;;;;15.60;1.00;;;;;;;-2.70;77.24;100138.41;5108826;28;20077;-66
2023/12/13 11:17:59;;;;;;;0.60;0.60;;;;;;;-2.70;76.77;100143.50;5109025;28;20085;-68
2023/12/13 11:20:26;;;;;;;0.60;0.60;;;;;;;-2.77;77.61;100139.81;5108687;28;20027;-67
2023/12/13 11:22:55;;;;;;;0.50;0.50;;;;;;;-2.70;77.86;100138.41;5090435;28;20027;-67